createdAt,value
2018-01-28T00:00:39.648Z,66.33
2018-01-28T00:03:07.733Z,61.37
2018-01-28T00:05:35.785Z,69.57
2018-01-28T00:08:04.665Z,56.15
2018-01-28T00:10:33.481Z,67.67
2018-01-28T00:13:01.534Z,58.20
2018-01-28T00:15:30.389Z,62.33
2018-01-28T00:17:58.471Z,56.20
2018-01-28T00:20:26.545Z,54.07
2018-01-28T00:22:54.638Z,46.10
2018-01-28T00:25:22.710Z,56.80
2018-01-28T00:27:50.776Z,46.80
2018-01-28T00:30:18.878Z,51.72
2018-01-28T00:32:46.937Z,49.53
2018-01-28T00:35:14.997Z,60.05
2018-01-28T00:37:43.127Z,45.20
2018-01-28T00:40:11.941Z,47.73
2018-01-28T00:42:41.242Z,49.30
2018-01-28T00:45:11.188Z,41.43
2018-01-28T00:47:39.244Z,47.20
2018-01-28T00:50:07.317Z,42.77
2018-01-28T00:52:35.390Z,44.13
2018-01-28T00:55:03.446Z,43.97
2018-01-28T00:57:32.269Z,40.47
2018-01-28T01:00:00.371Z,43.03
2018-01-28T01:02:28.434Z,35.73
2018-01-28T01:04:56.488Z,38.93
2018-01-28T01:07:24.563Z,44.03
2018-01-28T01:09:52.913Z,49.80
2018-01-28T01:12:21.745Z,44.00
2018-01-28T01:14:50.022Z,46.63
2018-01-28T01:17:18.129Z,48.77
2018-01-28T01:19:46.241Z,37.80
2018-01-28T01:22:14.309Z,46.47
2018-01-28T01:24:42.368Z,38.93
2018-01-28T01:27:12.096Z,40.03
2018-01-28T01:29:41.209Z,44.73
2018-01-28T01:32:10.065Z,39.33
2018-01-28T01:34:38.150Z,48.27
2018-01-28T01:37:06.318Z,44.47
2018-01-28T01:39:34.387Z,33.63
2018-01-28T01:42:02.478Z,40.83
2018-01-28T01:44:30.582Z,38.72
2018-01-28T01:46:59.453Z,40.53
2018-01-28T01:49:35.496Z,41.67
2018-01-28T01:52:03.585Z,36.70
2018-01-28T01:54:31.649Z,32.00
2018-01-28T01:56:59.737Z,38.53
2018-01-28T01:59:27.805Z,37.80
2018-01-28T02:01:55.873Z,43.50
2018-01-28T02:04:23.942Z,45.37
2018-01-28T02:06:51.993Z,38.13
2018-01-28T02:09:20.057Z,41.55
2018-01-28T02:11:48.876Z,37.67
2018-01-28T02:14:16.989Z,42.92
2018-01-28T02:16:45.078Z,34.97
2018-01-28T02:19:14.677Z,39.97
2018-01-28T02:21:42.757Z,41.80
2018-01-28T02:24:10.941Z,40.17
2018-01-28T02:26:38.996Z,39.17
2018-01-28T02:29:07.081Z,39.97
2018-01-28T02:31:35.129Z,37.10
2018-01-28T02:34:03.207Z,38.83
2018-01-28T02:36:31.260Z,41.07
2018-01-28T02:39:00.090Z,38.10
2018-01-28T02:41:28.138Z,38.63
2018-01-28T02:43:56.205Z,44.67
2018-01-28T02:46:25.216Z,39.60
2018-01-28T02:48:53.325Z,34.47
2018-01-28T02:51:21.373Z,35.60
2018-01-28T02:53:49.478Z,39.33
2018-01-28T02:56:17.551Z,42.62
2018-01-28T02:58:45.609Z,48.63
2018-01-28T03:01:13.685Z,35.03
2018-01-28T03:03:42.857Z,47.00
2018-01-28T03:06:11.811Z,43.77
2018-01-28T03:08:39.857Z,38.87
2018-01-28T03:11:07.977Z,38.60
2018-01-28T03:13:36.133Z,35.20
2018-01-28T03:16:04.221Z,38.63
2018-01-28T03:18:32.293Z,34.93
2018-01-28T03:21:00.361Z,33.50
2018-01-28T03:23:28.425Z,29.90
2018-01-28T03:25:56.485Z,35.80
2018-01-28T03:28:24.555Z,26.53
2018-01-28T03:30:52.611Z,28.83
2018-01-28T03:33:21.433Z,36.27
2018-01-28T03:35:49.526Z,31.50
2018-01-28T03:38:17.608Z,32.35
2018-01-28T03:40:45.670Z,30.77
2018-01-28T03:43:13.734Z,29.57
2018-01-28T03:45:41.799Z,33.67
2018-01-28T03:48:10.626Z,33.67
2018-01-28T03:50:38.669Z,30.27
2018-01-28T03:53:06.789Z,37.05
2018-01-28T03:55:34.841Z,29.73
2018-01-28T03:58:02.961Z,34.70
2018-01-28T04:00:31.133Z,33.93
2018-01-28T04:02:59.309Z,28.37
2018-01-28T04:05:27.379Z,36.50
2018-01-28T04:07:55.453Z,31.00
2018-01-28T04:10:23.529Z,33.63
2018-01-28T04:12:51.702Z,33.63
2018-01-28T04:15:19.770Z,33.30
2018-01-28T04:17:47.833Z,33.50
2018-01-28T04:20:15.964Z,33.23
2018-01-28T04:22:45.142Z,30.35
2018-01-28T04:25:14.349Z,43.73
2018-01-28T04:27:42.421Z,33.37
2018-01-28T04:30:10.499Z,30.70
2018-01-28T04:32:38.556Z,30.37
2018-01-28T04:35:06.620Z,29.87
2018-01-28T04:37:34.682Z,36.00
2018-01-28T04:40:02.755Z,29.07
2018-01-28T04:42:31.589Z,36.07
2018-01-28T04:44:59.672Z,42.97
2018-01-28T04:47:27.729Z,33.42
2018-01-28T04:49:55.814Z,32.17
2018-01-28T04:52:23.910Z,37.20
2018-01-28T04:54:51.982Z,34.07
2018-01-28T04:57:20.025Z,33.67
2018-01-28T04:59:48.110Z,36.37
2018-01-28T05:02:16.166Z,33.93
2018-01-28T05:04:45.038Z,36.03
2018-01-28T05:07:15.018Z,37.70
2018-01-28T05:09:43.088Z,36.57
2018-01-28T05:12:11.135Z,34.10
2018-01-28T05:14:39.197Z,37.10
2018-01-28T05:17:07.248Z,32.57
2018-01-28T05:19:35.310Z,33.97
2018-01-28T05:22:04.143Z,36.00
2018-01-28T05:24:32.972Z,32.97
2018-01-28T05:27:01.049Z,35.60
2018-01-28T05:29:29.362Z,33.53
2018-01-28T05:31:57.414Z,42.93
2018-01-28T05:34:25.478Z,40.10
2018-01-28T05:36:53.531Z,34.85
2018-01-28T05:39:21.595Z,35.23
2018-01-28T05:41:49.718Z,43.97
2018-01-28T05:44:17.787Z,35.65
2018-01-28T05:46:46.637Z,41.42
2018-01-28T05:49:16.596Z,33.80
2018-01-28T05:51:44.681Z,39.10
2018-01-28T05:54:12.765Z,40.97
2018-01-28T05:56:40.842Z,38.70
2018-01-28T05:59:08.910Z,45.23
2018-01-28T06:01:36.996Z,35.17
2018-01-28T06:04:05.057Z,39.23
2018-01-28T06:06:33.127Z,40.20
2018-01-28T06:09:01.174Z,39.83
2018-01-28T06:11:29.480Z,41.20
2018-01-28T06:13:57.543Z,30.80
2018-01-28T06:16:25.597Z,38.93
2018-01-28T06:18:54.412Z,42.37
2018-01-28T06:21:22.493Z,39.10
2018-01-28T06:23:50.558Z,38.83
2018-01-28T06:26:18.634Z,29.27
2018-01-28T06:28:47.641Z,37.60
2018-01-28T06:31:17.601Z,35.50
2018-01-28T06:33:46.768Z,38.97
2018-01-28T06:36:14.866Z,43.30
2018-01-28T06:38:42.917Z,35.17
2018-01-28T06:41:10.993Z,36.80
2018-01-28T06:43:39.705Z,35.20
2018-01-28T06:46:07.789Z,36.47
2018-01-28T06:48:35.852Z,38.67
2018-01-28T06:51:03.930Z,39.20
2018-01-28T06:53:31.985Z,37.23
2018-01-28T06:56:00.040Z,34.03
2018-01-28T06:58:28.885Z,34.83
2018-01-28T07:00:56.935Z,38.57
2018-01-28T07:03:25.011Z,42.43
2018-01-28T07:05:53.118Z,36.20
2018-01-28T07:08:21.184Z,34.93
2018-01-28T07:10:49.238Z,38.40
2018-01-28T07:13:17.677Z,38.50
2018-01-28T07:15:47.773Z,41.27
2018-01-28T07:18:15.837Z,45.60
2018-01-28T07:20:43.893Z,33.87
2018-01-28T07:23:11.981Z,42.10
2018-01-28T07:25:40.048Z,40.80
2018-01-28T07:28:08.121Z,34.17
2018-01-28T07:30:36.169Z,33.43
2018-01-28T07:33:05.006Z,43.53
2018-01-28T07:35:33.109Z,35.45
2018-01-28T07:38:01.306Z,37.20
2018-01-28T07:40:30.878Z,34.70
2018-01-28T07:42:58.959Z,37.83
2018-01-28T07:45:27.010Z,38.70
2018-01-28T07:47:55.123Z,35.60
2018-01-28T07:50:23.173Z,35.36
2018-01-28T07:52:51.234Z,32.13
2018-01-28T07:55:19.342Z,236.53
2018-01-28T07:57:48.513Z,32.05
2018-01-28T08:00:16.586Z,35.33
2018-01-28T08:02:44.641Z,28.03
2018-01-28T08:05:13.497Z,27.00
2018-01-28T08:07:41.545Z,35.67
2018-01-28T08:13:11.747Z,30.03
2018-01-28T08:15:40.577Z,29.25
2018-01-28T08:18:08.641Z,28.40
2018-01-28T08:20:36.701Z,29.93
2018-01-28T08:23:04.761Z,34.80
2018-01-28T08:25:33.589Z,26.23
2018-01-28T08:28:14.446Z,35.40
2018-01-28T08:30:42.518Z,28.83
2018-01-28T08:33:10.574Z,29.83
2018-01-28T08:35:39.397Z,27.23
2018-01-28T08:38:07.449Z,29.73
2018-01-28T08:40:36.301Z,38.53
2018-01-28T08:43:04.476Z,28.93
2018-01-28T08:45:32.580Z,28.50
2018-01-28T08:48:00.698Z,29.37
2018-01-28T08:50:28.709Z,23.50
2018-01-28T08:52:56.761Z,31.10
2018-01-28T08:55:24.882Z,28.87
2018-01-28T08:57:53.142Z,26.87
2018-01-28T09:00:21.231Z,30.20
2018-01-28T09:02:49.809Z,27.08
2018-01-28T09:05:17.871Z,26.47
2018-01-28T09:07:45.945Z,35.30
2018-01-28T09:10:14.030Z,25.03
2018-01-28T09:12:42.109Z,27.73
2018-01-28T09:15:10.168Z,25.57
2018-01-28T09:17:38.258Z,22.93
2018-01-28T09:20:06.350Z,24.00
2018-01-28T09:22:34.458Z,25.47
2018-01-28T09:25:03.309Z,29.70
2018-01-28T09:27:31.370Z,32.97
2018-01-28T09:29:59.422Z,23.70
2018-01-28T09:32:27.660Z,25.83
2018-01-28T09:34:56.468Z,25.77
2018-01-28T09:37:25.292Z,28.80
2018-01-28T09:39:53.346Z,26.60
2018-01-28T09:42:22.173Z,30.43
2018-01-28T09:44:51.360Z,21.37
2018-01-28T09:47:20.589Z,24.77
2018-01-28T09:49:48.651Z,26.10
2018-01-28T09:52:16.743Z,22.37
2018-01-28T09:54:44.799Z,24.00
2018-01-28T09:57:12.866Z,24.90
2018-01-28T09:59:40.982Z,23.77
2018-01-28T10:02:09.162Z,25.10
2018-01-28T10:04:37.249Z,26.03
2018-01-28T10:07:05.409Z,24.83
2018-01-28T10:09:33.465Z,22.77
2018-01-28T10:12:01.565Z,22.47
2018-01-28T10:14:29.610Z,25.03
2018-01-28T10:16:57.719Z,24.00
2018-01-28T10:19:25.788Z,21.85
2018-01-28T10:21:53.976Z,23.60
2018-01-28T10:24:22.041Z,24.77
2018-01-28T10:26:51.242Z,20.30
2018-01-28T10:29:19.313Z,18.77
2018-01-28T10:31:47.393Z,16.70
2018-01-28T10:34:15.498Z,24.43
2018-01-28T10:36:43.561Z,19.80
2018-01-28T10:39:11.636Z,20.20
2018-01-28T10:41:39.702Z,21.13
2018-01-28T10:44:07.781Z,17.13
2018-01-28T10:46:35.849Z,14.90
2018-01-28T10:49:03.945Z,16.55
2018-01-28T10:51:32.020Z,17.53
2018-01-28T10:54:00.086Z,18.30
2018-01-28T10:56:28.153Z,19.40
2018-01-28T10:58:56.272Z,17.63
2018-01-28T11:01:25.133Z,18.60
2018-01-28T11:03:53.309Z,13.57
2018-01-28T11:06:21.355Z,13.00
2018-01-28T11:08:49.405Z,14.70
2018-01-28T11:11:18.275Z,14.73
2018-01-28T11:13:46.321Z,12.65
2018-01-28T11:16:14.416Z,18.92
2018-01-28T11:18:42.475Z,13.45
2018-01-28T11:21:10.525Z,13.67
2018-01-28T11:23:38.999Z,12.50
2018-01-28T11:26:07.843Z,9.63
2018-01-28T11:28:35.950Z,9.98
2018-01-28T11:31:04.101Z,14.90
2018-01-28T11:33:32.162Z,19.27
2018-01-28T11:36:00.241Z,11.30
2018-01-28T11:38:28.326Z,11.43
2018-01-28T11:40:57.623Z,13.70
2018-01-28T11:43:26.789Z,11.20
2018-01-28T11:45:54.847Z,13.70
2018-01-28T11:48:22.981Z,11.10
2018-01-28T11:50:51.057Z,10.20
2018-01-28T11:53:19.120Z,11.83
2018-01-28T11:55:47.208Z,8.20
2018-01-28T11:58:15.275Z,13.33
2018-01-28T12:00:43.387Z,14.30
2018-01-28T12:03:11.435Z,9.83
2018-01-28T12:05:40.303Z,8.90
2018-01-28T12:08:08.452Z,10.80
2018-01-28T12:10:37.917Z,13.10
2018-01-28T12:13:06.040Z,12.63
2018-01-28T12:15:34.895Z,14.43
2018-01-28T12:18:02.954Z,12.20
2018-01-28T12:20:31.050Z,11.20
2018-01-28T12:22:59.271Z,12.73
2018-01-28T12:25:28.090Z,10.77
2018-01-28T12:27:56.218Z,12.55
2018-01-28T12:30:24.325Z,9.97
2018-01-28T12:32:53.133Z,11.57
2018-01-28T12:35:21.243Z,10.00
2018-01-28T12:37:50.434Z,10.40
2018-01-28T12:40:18.556Z,10.73
2018-01-28T12:42:46.697Z,11.00
2018-01-28T12:45:14.770Z,8.03
2018-01-28T12:47:42.818Z,9.77
2018-01-28T12:50:10.928Z,8.83
2018-01-28T12:52:39.129Z,10.17
2018-01-28T12:55:07.223Z,7.37
2018-01-28T12:57:35.357Z,8.20
2018-01-28T13:00:03.470Z,13.07
2018-01-28T13:02:32.349Z,8.67
2018-01-28T13:05:00.406Z,8.50
2018-01-28T13:07:28.509Z,12.40
2018-01-28T13:09:56.613Z,5.87
2018-01-28T13:12:25.477Z,12.60
2018-01-28T13:14:53.569Z,9.27
2018-01-28T13:17:21.716Z,11.00
2018-01-28T13:19:50.941Z,24.57
2018-01-28T13:22:19.144Z,8.10
2018-01-28T13:24:47.950Z,8.20
2018-01-28T13:27:16.061Z,6.67
2018-01-28T13:29:44.241Z,6.90
2018-01-28T13:32:12.332Z,5.40
2018-01-28T13:34:40.575Z,8.10
2018-01-28T13:37:09.501Z,8.97
2018-01-28T13:39:37.616Z,7.07
2018-01-28T13:42:06.488Z,6.00
2018-01-28T13:44:34.529Z,5.63
2018-01-28T13:47:02.605Z,7.70
2018-01-28T13:49:30.740Z,4.23
2018-01-28T13:51:58.783Z,3.60
2018-01-28T13:54:26.849Z,6.90
2018-01-28T13:56:54.919Z,3.67
2018-01-28T13:59:23.732Z,2.63
2018-01-28T14:01:52.826Z,4.63
2018-01-28T14:04:21.678Z,3.50
2018-01-28T14:06:49.793Z,2.80
2018-01-28T14:09:17.907Z,3.37
2018-01-28T14:11:46.083Z,2.50
2018-01-28T14:14:14.229Z,7.30
2018-01-28T14:16:42.301Z,6.70
2018-01-28T14:19:10.408Z,3.63
2018-01-28T14:21:38.575Z,6.30
2018-01-28T14:24:06.685Z,5.63
2018-01-28T14:26:35.525Z,4.27
2018-01-28T14:29:03.581Z,4.40
2018-01-28T14:31:31.698Z,4.37
2018-01-28T14:33:59.784Z,4.00
2018-01-28T14:36:27.935Z,3.50
2018-01-28T14:38:56.057Z,4.80
2018-01-28T14:41:25.340Z,4.60
2018-01-28T14:43:53.390Z,4.17
2018-01-28T14:46:23.076Z,2.55
2018-01-28T14:48:52.254Z,2.83
2018-01-28T14:51:22.209Z,3.12
2018-01-28T14:53:50.326Z,4.63
2018-01-28T14:56:19.893Z,11.77
2018-01-28T14:58:47.982Z,4.67
2018-01-28T15:01:16.210Z,2.53
2018-01-28T15:03:45.044Z,9.90
2018-01-28T15:06:13.105Z,6.67
2018-01-28T15:08:41.177Z,7.07
2018-01-28T15:11:09.337Z,9.53
2018-01-28T15:13:38.259Z,2.50
2018-01-28T15:16:06.297Z,3.27
2018-01-28T15:18:35.212Z,3.70
2018-01-28T15:21:04.026Z,2.47
2018-01-28T15:23:32.168Z,3.00
2018-01-28T15:26:01.029Z,1.90
2018-01-28T15:28:29.136Z,3.73
2018-01-28T15:30:57.953Z,2.92
2018-01-28T15:33:26.116Z,2.17
2018-01-28T15:35:54.929Z,2.30
2018-01-28T15:38:23.070Z,1.60
2018-01-28T15:40:51.157Z,2.23
2018-01-28T15:43:19.985Z,1.70
2018-01-28T15:45:48.053Z,3.37
2018-01-28T15:48:16.169Z,3.17
2018-01-28T15:50:44.229Z,2.00
2018-01-28T15:53:12.340Z,2.20
2018-01-28T15:55:41.211Z,1.77
2018-01-28T15:58:09.256Z,2.63
2018-01-28T16:00:37.420Z,1.70
2018-01-28T16:03:06.226Z,3.20
2018-01-28T16:05:34.299Z,3.73
2018-01-28T16:08:02.463Z,3.27
2018-01-28T16:10:31.301Z,5.80
2018-01-28T16:12:59.375Z,4.30
2018-01-28T16:15:27.488Z,1.58
2018-01-28T16:17:55.575Z,2.53
2018-01-28T16:20:23.677Z,5.43
2018-01-28T16:22:51.781Z,5.70
2018-01-28T16:25:20.624Z,2.13
2018-01-28T16:27:48.820Z,4.53
2018-01-28T16:30:17.665Z,2.40
2018-01-28T16:32:45.719Z,2.00
2018-01-28T16:35:13.842Z,1.80
2018-01-28T16:37:43.026Z,3.90
2018-01-28T16:40:11.107Z,2.53
2018-01-28T16:42:39.257Z,2.73
2018-01-28T16:45:07.369Z,1.60
2018-01-28T16:47:35.470Z,6.10
2018-01-28T16:50:04.320Z,2.20
2018-01-28T16:52:32.423Z,3.00
2018-01-28T16:55:00.470Z,2.30
2018-01-28T16:57:28.553Z,1.70
2018-01-28T16:59:56.625Z,2.60
2018-01-28T17:02:24.685Z,3.23
2018-01-28T17:04:53.967Z,5.05
2018-01-28T17:07:23.937Z,3.80
2018-01-28T17:09:52.025Z,2.60
2018-01-28T17:12:20.222Z,10.07
2018-01-28T17:14:49.070Z,3.00
2018-01-28T17:17:17.219Z,4.10
2018-01-28T17:19:45.356Z,2.40
2018-01-28T17:22:13.552Z,6.10
2018-01-28T17:24:42.358Z,2.43
2018-01-28T17:27:10.512Z,2.43
2018-01-28T17:29:38.609Z,3.93
2018-01-28T17:32:07.424Z,3.73
2018-01-28T17:34:35.520Z,4.63
2018-01-28T17:37:03.612Z,2.87
2018-01-28T17:39:31.703Z,6.20
2018-01-28T17:41:59.889Z,3.30
2018-01-28T17:44:27.925Z,2.80
2018-01-28T17:46:56.060Z,3.63
2018-01-28T17:49:24.414Z,4.00
2018-01-28T17:51:55.082Z,3.03
2018-01-28T17:54:24.369Z,2.87
2018-01-28T17:56:54.289Z,2.50
2018-01-28T17:59:23.115Z,2.93
2018-01-28T18:01:51.209Z,3.40
2018-01-28T18:04:19.325Z,3.10
2018-01-28T18:06:48.871Z,3.03
2018-01-28T18:09:17.034Z,4.57
2018-01-28T18:11:45.890Z,3.33
2018-01-28T18:14:14.001Z,3.40
2018-01-28T18:16:42.865Z,7.00
2018-01-28T18:19:10.969Z,3.17
2018-01-28T18:21:39.825Z,5.10
2018-01-28T18:24:07.941Z,5.40
2018-01-28T18:26:36.793Z,2.93
2018-01-28T18:29:04.848Z,3.10
2018-01-28T18:31:33.150Z,2.93
2018-01-28T18:34:01.222Z,7.23
2018-01-28T18:36:29.335Z,12.63
2018-01-28T18:38:57.381Z,10.80
2018-01-28T18:41:25.476Z,4.33
2018-01-28T18:43:54.686Z,3.87
2018-01-28T18:46:23.553Z,4.57
2018-01-28T18:48:51.717Z,4.53
2018-01-28T18:51:19.804Z,4.40
2018-01-28T18:53:47.912Z,3.97
2018-01-28T18:56:16.812Z,5.75
2018-01-28T18:58:45.692Z,3.13
2018-01-28T19:01:15.326Z,2.83
2018-01-28T19:03:44.192Z,3.80
2018-01-28T19:06:12.272Z,4.30
2018-01-28T19:08:40.372Z,4.00
2018-01-28T19:11:09.231Z,4.77
2018-01-28T19:13:37.349Z,2.77
2018-01-28T19:16:06.197Z,3.13
2018-01-28T19:18:34.296Z,3.67
2018-01-28T19:21:02.380Z,6.63
2018-01-28T19:23:30.472Z,2.90
2018-01-28T19:25:59.332Z,3.10
2018-01-28T19:28:27.386Z,3.07
2018-01-28T19:30:55.502Z,3.30
2018-01-28T19:33:23.588Z,6.17
2018-01-28T19:35:52.449Z,3.53
2018-01-28T19:38:20.584Z,5.97
2018-01-28T19:40:48.633Z,2.97
2018-01-28T19:43:17.536Z,4.40
2018-01-28T19:45:46.378Z,3.03
2018-01-28T19:48:14.508Z,3.23
2018-01-28T19:50:43.347Z,2.67
2018-01-28T19:53:11.445Z,5.93
2018-01-28T19:55:39.537Z,4.43
2018-01-28T19:58:09.178Z,3.00
2018-01-28T20:00:38.024Z,6.80
2018-01-28T20:03:06.232Z,3.37
2018-01-28T20:05:34.320Z,3.50
2018-01-28T20:08:03.193Z,4.53
2018-01-28T20:10:31.288Z,4.83
2018-01-28T20:13:00.121Z,3.13
2018-01-28T20:15:28.257Z,2.70
2018-01-28T20:17:57.141Z,3.33
2018-01-28T20:20:25.831Z,3.37
2018-01-28T20:22:54.704Z,3.87
2018-01-28T20:25:22.820Z,3.77
2018-01-28T20:27:51.663Z,4.20
2018-01-28T20:30:19.785Z,2.90
2018-01-28T20:32:48.649Z,2.90
2018-01-28T20:35:16.843Z,3.23
2018-01-28T20:37:44.960Z,2.33
2018-01-28T20:40:13.077Z,3.55
2018-01-28T20:42:41.142Z,4.67
2018-01-28T20:45:09.260Z,3.63
2018-01-28T20:47:37.344Z,4.77
2018-01-28T20:50:06.213Z,2.60
2018-01-28T20:52:34.296Z,3.10
2018-01-28T20:55:02.350Z,4.30
2018-01-28T20:57:30.825Z,2.93
2018-01-28T20:59:59.312Z,3.40
2018-01-28T21:02:27.424Z,4.90
2018-01-28T21:04:57.112Z,5.72
2018-01-28T21:07:26.344Z,4.93
2018-01-28T21:09:54.437Z,4.03
2018-01-28T21:12:23.281Z,6.20
2018-01-28T21:14:51.329Z,3.58
2018-01-28T21:17:19.468Z,3.35
2018-01-28T21:19:47.561Z,2.93
2018-01-28T21:22:16.441Z,3.77
2018-01-28T21:24:44.621Z,6.03
2018-01-28T21:27:12.726Z,3.40
2018-01-28T21:29:40.824Z,3.90
2018-01-28T21:32:08.909Z,6.23
2018-01-28T21:34:36.977Z,3.10
2018-01-28T21:37:05.116Z,4.47
2018-01-28T21:39:33.939Z,5.33
2018-01-28T21:42:02.033Z,3.43
2018-01-28T21:44:30.148Z,3.63
2018-01-28T21:46:58.197Z,4.73
2018-01-28T21:49:28.248Z,4.30
2018-01-28T21:51:57.832Z,3.78
2018-01-28T21:54:26.767Z,4.45
2018-01-28T21:56:56.728Z,3.40
2018-01-28T21:59:24.829Z,4.13
2018-01-28T22:01:52.928Z,3.53
2018-01-28T22:04:21.104Z,4.50
2018-01-28T22:06:49.285Z,3.17
2018-01-28T22:09:23.520Z,4.00
2018-01-28T22:11:52.372Z,4.27
2018-01-28T22:14:20.525Z,3.20
2018-01-28T22:16:48.565Z,3.67
2018-01-28T22:19:16.734Z,4.63
2018-01-28T22:21:45.541Z,6.33
2018-01-28T22:24:13.701Z,5.30
2018-01-28T22:26:41.772Z,4.07
2018-01-28T22:29:09.819Z,5.07
2018-01-28T22:31:37.925Z,8.53
2018-01-28T22:34:05.982Z,5.67
2018-01-28T22:36:35.566Z,3.50
2018-01-28T22:39:03.664Z,4.67
2018-01-28T22:41:31.701Z,7.35
2018-01-28T22:43:59.832Z,5.07
2018-01-28T22:46:27.882Z,5.30
2018-01-28T22:48:57.054Z,3.93
2018-01-28T22:51:25.150Z,3.60
2018-01-28T22:53:53.195Z,4.60
2018-01-28T22:56:21.287Z,4.80
2018-01-28T22:58:49.379Z,6.82
2018-01-28T23:01:17.497Z,4.63
2018-01-28T23:03:46.331Z,3.33
2018-01-28T23:06:14.426Z,4.43
2018-01-28T23:08:42.494Z,3.73
2018-01-28T23:11:10.636Z,5.07
2018-01-28T23:13:39.471Z,2.73
2018-01-28T23:16:07.554Z,3.53
2018-01-28T23:18:35.630Z,2.95
2018-01-28T23:21:03.685Z,3.40
2018-01-28T23:23:31.784Z,5.25
2018-01-28T23:25:59.846Z,2.90
2018-01-28T23:28:27.901Z,3.23
2018-01-28T23:30:55.986Z,3.33
2018-01-28T23:33:24.029Z,3.20
2018-01-28T23:35:52.907Z,3.43
2018-01-28T23:38:20.944Z,3.20
2018-01-28T23:40:49.038Z,4.80
2018-01-28T23:43:17.108Z,5.00
2018-01-28T23:45:45.171Z,2.80
2018-01-28T23:48:13.271Z,2.67
2018-01-28T23:50:41.445Z,2.83
2018-01-28T23:53:09.493Z,3.50
2018-01-28T23:55:37.590Z,3.57
2018-01-28T23:58:05.647Z,2.90
